Time;durP1;ratioP1;P1;durP2;ratioP2;P2;SDS_P1;SDS_P2;PMS_P1;PMS_P2;Temp;Humidity;BMP_temperature;BMP_pressure;BME280_temperature;BME280_humidity;BME280_pressure;Samples;Min_cycle;Max_cycle;Signal;HPM_P1;HPM_P2
2021/05/11 00:00:00;;;;;;;2.00;1.63;;;15.70;99.90;;;;;;5095190;28;20414;-68
2021/05/11 00:02:26;;;;;;;2.50;2.00;;;15.60;99.90;;;;;;5095001;28;20243;-68
2021/05/11 00:04:51;;;;;;;4.10;1.77;;;15.60;99.90;;;;;;5095140;28;20676;-68
2021/05/11 00:07:17;;;;;;;3.07;1.73;;;15.50;99.90;;;;;;5094817;28;20179;-68
2021/05/11 00:09:42;;;;;;;2.80;2.03;;;15.50;1.00;;;;;;5095271;28;20156;-68
2021/05/11 00:12:08;;;;;;;2.10;1.90;;;15.40;1.00;;;;;;5094992;28;20628;-68
2021/05/11 00:14:34;;;;;;;2.07;1.87;;;15.40;1.00;;;;;;5094838;28;20191;-69
2021/05/11 00:17:00;;;;;;;2.40;1.73;;;15.40;1.00;;;;;;5094920;28;20409;-69
2021/05/11 00:19:27;;;;;;;2.37;1.87;;;15.30;1.00;;;;;;5093558;28;20184;-69
2021/05/11 00:21:53;;;;;;;6.90;2.70;;;15.30;95.10;;;;;;5094863;28;20463;-69
2021/05/11 00:24:19;;;;;;;2.40;2.10;;;15.20;99.90;;;;;;5094649;28;20941;-69
2021/05/11 00:26:44;;;;;;;2.70;1.87;;;15.20;99.90;;;;;;5095183;28;20178;-69
2021/05/11 00:29:10;;;;;;;2.60;2.40;;;15.30;1.00;;;;;;5094550;28;20556;-69
2021/05/11 00:31:35;;;;;;;2.63;2.43;;;15.20;1.00;;;;;;5094827;28;20253;-69
2021/05/11 00:34:01;;;;;;;3.00;2.70;;;15.20;99.90;;;;;;5094600;28;20190;-69
2021/05/11 00:36:26;;;;;;;3.07;2.70;;;15.10;1.00;;;;;;5095216;28;20175;-69
2021/05/11 00:38:52;;;;;;;3.10;2.70;;;15.10;1.00;;;;;;5094366;28;20201;-69
2021/05/11 00:41:18;;;;;;;3.57;2.87;;;15.10;23.40;;;;;;5094579;28;20637;-69
2021/05/11 00:43:44;;;;;;;3.17;2.37;;;15.10;1.00;;;;;;5094511;28;20176;-69
2021/05/11 00:46:10;;;;;;;3.00;2.53;;;15.10;1.00;;;;;;5094249;28;20170;-69
2021/05/11 00:48:36;;;;;;;4.60;3.23;;;15.10;1.00;;;;;;5094469;28;20456;-68
2021/05/11 00:51:05;;;;;;;2.00;1.80;;;15.10;1.00;;;;;;5094218;28;20167;-69
2021/05/11 00:53:32;;;;;;;2.80;2.60;;;15.10;1.00;;;;;;5094016;28;20402;-69
2021/05/11 00:55:57;;;;;;;2.97;2.43;;;15.00;1.00;;;;;;5094016;28;20424;-69
2021/05/11 00:58:24;;;;;;;1.87;1.77;;;15.00;8.80;;;;;;5094005;28;20497;-69
2021/05/11 01:00:50;;;;;;;4.00;2.93;;;15.00;1.00;;;;;;5094260;28;20296;-69
2021/05/11 01:03:15;;;;;;;3.10;2.80;;;15.10;99.90;;;;;;5093542;28;20454;-69
2021/05/11 01:05:41;;;;;;;3.60;2.47;;;15.00;99.90;;;;;;5094091;28;20218;-69
2021/05/11 01:08:06;;;;;;;4.70;2.80;;;15.00;99.90;;;;;;5093669;28;20203;-69
2021/05/11 01:10:32;;;;;;;2.23;1.93;;;15.00;99.90;;;;;;5094176;28;20192;-69
2021/05/11 01:12:57;;;;;;;2.80;1.83;;;15.00;99.90;;;;;;5094164;28;20652;-68
2021/05/11 01:15:23;;;;;;;4.80;2.63;;;15.00;99.20;;;;;;5093674;28;20187;-69
2021/05/11 01:17:59;;;;;;;2.30;2.10;;;15.00;51.80;;;;;;5093901;28;20210;-69
2021/05/11 01:20:34;;;;;;;2.63;2.10;;;14.90;99.90;;;;;;5093940;28;20216;-69
2021/05/11 01:25:34;;;;;;;3.03;2.33;;;14.90;99.90;;;;;;5094025;28;20431;-68
2021/05/11 01:47:49;;;;;;;2.10;1.90;;;14.90;99.90;;;;;;5093713;28;20377;-69
2021/05/11 01:50:10;;;;;;;2.40;2.20;;;14.90;99.90;;;;;;5087459;28;20433;-69
2021/05/11 01:52:52;;;;;;;2.27;2.00;;;14.80;99.90;;;;;;5093358;28;20773;-69
2021/05/11 01:55:30;;;;;;;2.47;2.20;;;14.80;99.90;;;;;;5093201;28;20935;-69
2021/05/11 02:22:46;;;;;;;2.87;2.57;;;14.70;99.90;;;;;;5097375;28;20389;-69
2021/05/11 02:25:15;;;;;;;3.67;2.57;;;14.70;1.00;;;;;;5097263;28;20484;-69
2021/05/11 02:27:41;;;;;;;3.53;3.00;;;14.70;1.00;;;;;;5096943;28;20916;-69
2021/05/11 02:30:08;;;;;;;2.80;2.60;;;14.60;99.90;;;;;;5097222;28;20438;-69
2021/05/11 02:32:38;;;;;;;5.60;3.60;;;14.50;1.00;;;;;;5096941;28;20406;-69
2021/05/11 02:35:05;;;;;;;4.90;3.70;;;14.50;99.90;;;;;;5097037;28;20522;-69
2021/05/11 02:37:30;;;;;;;3.23;2.67;;;14.50;99.90;;;;;;5096805;28;20408;-69
2021/05/11 02:39:56;;;;;;;3.17;2.67;;;14.50;99.90;;;;;;5096709;28;20417;-69
2021/05/11 02:42:22;;;;;;;3.23;2.90;;;14.50;99.90;;;;;;5096760;28;20185;-69
2021/05/11 02:44:48;;;;;;;6.70;3.57;;;14.60;99.90;;;;;;5096597;28;20199;-68
2021/05/11 02:47:14;;;;;;;2.90;2.70;;;14.60;99.90;;;;;;5096883;28;20171;-69
2021/05/11 02:49:43;;;;;;;40.77;28.80;;;14.60;99.90;;;;;;5097266;28;20556;-69
2021/05/11 02:52:09;;;;;;;9.57;3.67;;;14.70;99.90;;;;;;5096755;28;20406;-68
2021/05/11 02:54:35;;;;;;;3.03;2.80;;;14.90;99.90;;;;;;5096655;28;20887;-68
2021/05/11 02:57:00;;;;;;;3.23;2.77;;;14.80;99.90;;;;;;5096373;28;20437;-68
2021/05/11 02:59:26;;;;;;;3.73;3.23;;;14.60;99.90;;;;;;5096337;28;20262;-68
2021/05/11 03:01:51;;;;;;;3.43;3.13;;;14.60;99.90;;;;;;5096221;28;20528;-68
2021/05/11 03:04:17;;;;;;;3.60;3.30;;;14.60;1.00;;;;;;5096043;28;20655;-69
2021/05/11 03:06:42;;;;;;;3.00;2.80;;;14.60;1.00;;;;;;5096170;28;20225;-69
2021/05/11 03:09:08;;;;;;;3.50;3.20;;;14.50;1.00;;;;;;5095904;28;20208;-69
2021/05/11 03:11:34;;;;;;;4.23;2.83;;;14.40;2.20;;;;;;5096256;28;20258;-69
2021/05/11 03:13:59;;;;;;;3.73;3.43;;;14.40;99.90;;;;;;5096283;28;20669;-69
2021/05/11 03:16:26;;;;;;;4.93;3.13;;;14.10;99.90;;;;;;5096303;28;20642;-69
2021/05/11 03:18:52;;;;;;;3.67;3.17;;;14.10;99.90;;;;;;5095927;28;20172;-69
2021/05/11 03:21:17;;;;;;;4.17;3.70;;;14.20;99.90;;;;;;5095868;28;20417;-69
2021/05/11 03:23:43;;;;;;;3.60;3.30;;;14.20;99.90;;;;;;5095795;28;20171;-69
2021/05/11 03:26:08;;;;;;;4.33;3.93;;;14.30;99.90;;;;;;5094915;28;20257;-69
2021/05/11 03:28:34;;;;;;;4.37;3.57;;;14.30;99.90;;;;;;5095522;28;20192;-68
2021/05/11 03:30:59;;;;;;;3.93;3.53;;;14.30;99.90;;;;;;5095654;28;20166;-68
2021/05/11 03:33:25;;;;;;;3.87;3.57;;;14.30;99.90;;;;;;5095508;28;20251;-68
2021/05/11 03:35:50;;;;;;;3.90;3.60;;;14.30;99.90;;;;;;5095635;28;20183;-68
2021/05/11 03:38:16;;;;;;;5.57;3.93;;;14.40;99.90;;;;;;5095419;28;20199;-68
2021/05/11 03:40:41;;;;;;;4.00;3.70;;;14.50;99.90;;;;;;5095363;28;20539;-68
2021/05/11 03:43:13;;;;;;;5.00;3.87;;;14.40;99.90;;;;;;5095249;28;20168;-68
2021/05/11 03:45:46;;;;;;;4.07;3.70;;;14.30;99.90;;;;;;5095062;28;20184;-68
2021/05/11 03:48:12;;;;;;;4.30;3.90;;;14.20;99.90;;;;;;5095042;28;20532;-68
2021/05/11 03:50:37;;;;;;;4.50;3.63;;;14.20;99.90;;;;;;5095042;28;20817;-68
2021/05/11 03:53:03;;;;;;;3.93;3.63;;;14.30;99.90;;;;;;5095299;28;20253;-68
2021/05/11 03:55:29;;;;;;;3.83;3.47;;;14.30;99.90;;;;;;5095029;28;20249;-68
2021/05/11 03:57:54;;;;;;;4.70;4.13;;;14.20;99.90;;;;;;5094897;28;20183;-68
2021/05/11 04:00:20;;;;;;;4.60;4.10;;;14.20;99.90;;;;;;5095131;28;20175;-68
2021/05/11 04:02:46;;;;;;;4.30;3.97;;;14.10;99.90;;;;;;5094721;28;20636;-68
2021/05/11 04:05:14;;;;;;;5.80;4.00;;;14.10;99.90;;;;;;5094646;28;20564;-68
2021/05/11 04:07:41;;;;;;;5.10;4.53;;;14.10;99.90;;;;;;5094564;28;20204;-69
2021/05/11 04:10:16;;;;;;;4.57;4.17;;;14.20;99.90;;;;;;5094792;28;20838;-69
2021/05/11 04:17:52;;;;;;;5.03;4.53;;;14.30;99.90;;;;;;5095163;28;20227;-69
2021/05/11 04:20:17;;;;;;;4.83;4.27;;;14.30;99.90;;;;;;5094458;28;20890;-69
2021/05/11 04:22:43;;;;;;;4.53;4.13;;;14.20;99.90;;;;;;5094675;28;20202;-68
2021/05/11 04:25:09;;;;;;;5.40;4.60;;;14.30;99.90;;;;;;5094278;28;20258;-68
2021/05/11 04:27:34;;;;;;;5.30;4.83;;;14.20;99.90;;;;;;5094198;28;20213;-68
2021/05/11 04:30:03;;;;;;;5.33;4.60;;;14.20;99.90;;;;;;5094299;28;20770;-68
2021/05/11 04:32:29;;;;;;;4.83;4.43;;;14.20;99.90;;;;;;5094116;28;20644;-68
2021/05/11 04:34:55;;;;;;;4.27;3.87;;;14.20;99.90;;;;;;5094363;28;20492;-69
2021/05/11 04:37:20;;;;;;;6.93;5.00;;;14.20;99.90;;;;;;5093017;28;20993;-68
2021/05/11 04:39:46;;;;;;;6.47;4.90;;;14.20;99.90;;;;;;5092866;28;20174;-69
2021/05/11 04:42:11;;;;;;;5.63;4.47;;;14.40;99.90;;;;;;5094494;28;20164;-69
2021/05/11 04:44:38;;;;;;;4.70;4.20;;;14.50;99.90;;;;;;5094380;28;20571;-69
2021/05/11 04:47:14;;;;;;;5.93;5.00;;;14.40;99.90;;;;;;5092914;28;20669;-68
2021/05/11 04:49:40;;;;;;;5.50;5.10;;;14.40;99.90;;;;;;5094277;28;20430;-69
2021/05/11 04:52:06;;;;;;;6.40;5.80;;;14.30;99.90;;;;;;5093892;28;20404;-69
2021/05/11 04:54:31;;;;;;;5.57;5.07;;;14.50;99.90;;;;;;5094055;28;20224;-69
2021/05/11 04:56:57;;;;;;;8.03;5.60;;;14.40;99.90;;;;;;5094155;28;20491;-69
2021/05/11 04:59:23;;;;;;;5.60;4.60;;;14.50;99.90;;;;;;5093886;28;20168;-69
2021/05/11 05:01:50;;;;;;;5.50;5.00;;;14.50;99.90;;;;;;5093524;28;20178;-69
2021/05/11 05:04:16;;;;;;;8.33;5.50;;;14.40;99.90;;;;;;5093870;28;20183;-69
2021/05/11 05:06:42;;;;;;;5.47;4.97;;;14.50;99.90;;;;;;5093876;28;20406;-69
2021/05/11 05:09:07;;;;;;;5.77;5.27;;;14.30;99.90;;;;;;5093643;28;20480;-69
2021/05/11 05:11:40;;;;;;;5.37;4.87;;;14.40;99.90;;;;;;5093994;28;20174;-68
2021/05/11 05:14:07;;;;;;;8.40;5.87;;;14.50;99.90;;;;;;5093886;28;20198;-69
2021/05/11 05:16:34;;;;;;;6.80;5.93;;;14.50;99.90;;;;;;5093948;28;20415;-69
2021/05/11 05:19:00;;;;;;;9.03;5.50;;;14.50;99.90;;;;;;5094484;28;20436;-69
2021/05/11 05:21:25;;;;;;;6.10;5.53;;;14.50;99.90;;;;;;5093614;28;20406;-69
2021/05/11 05:24:00;;;;;;;6.60;6.00;;;14.40;99.90;;;;;;5093848;28;20650;-69
2021/05/11 05:26:28;;;;;;;6.20;5.60;;;14.50;99.90;;;;;;5093617;28;20166;-68
2021/05/11 05:28:54;;;;;;;11.27;7.60;;;14.50;99.90;;;;;;5092927;28;20488;-69
2021/05/11 05:31:20;;;;;;;6.57;5.37;;;14.50;99.90;;;;;;5093629;28;20405;-69
2021/05/11 05:33:45;;;;;;;6.43;5.83;;;14.70;99.90;;;;;;5093608;28;20402;-69
2021/05/11 05:36:11;;;;;;;7.17;6.57;;;14.70;99.90;;;;;;5093382;28;20217;-69
2021/05/11 05:38:40;;;;;;;7.10;6.20;;;14.80;99.90;;;;;;5093226;28;20540;-69
2021/05/11 05:41:11;;;;;;;8.33;7.47;;;14.90;99.90;;;;;;5093078;28;20168;-69
2021/05/11 05:43:36;;;;;;;6.37;5.70;;;15.00;99.90;;;;;;5093098;28;20382;-69
2021/05/11 05:46:02;;;;;;;9.80;7.20;;;15.00;99.90;;;;;;5092797;28;20429;-69
2021/05/11 05:48:28;;;;;;;9.33;7.10;;;15.00;99.90;;;;;;5092372;28;20774;-68
2021/05/11 05:51:01;;;;;;;7.73;7.00;;;15.00;99.90;;;;;;5092956;28;20164;-69
2021/05/11 05:53:34;;;;;;;7.97;7.17;;;15.20;99.90;;;;;;5093556;28;20537;-69
2021/05/11 05:56:04;;;;;;;10.83;8.17;;;15.30;99.90;;;;;;5092911;28;20396;-69
2021/05/11 05:58:29;;;;;;;7.53;6.70;;;15.30;99.90;;;;;;5092860;28;20402;-68
2021/05/11 06:01:00;;;;;;;6.60;4.90;;;15.30;99.90;;;;;;5092736;28;20492;-69
2021/05/11 06:05:57;;;;;;;5.40;3.90;;;14.70;99.90;;;;;;5092641;28;20428;-69
2021/05/11 06:08:23;;;;;;;8.73;3.60;;;15.00;99.90;;;;;;5092795;28;20464;-69
2021/05/11 06:10:56;;;;;;;7.70;2.77;;;15.00;99.90;;;;;;5092705;28;20196;-69
2021/05/11 06:13:26;;;;;;;11.50;3.73;;;14.80;97.50;;;;;;5092827;28;20436;-69
2021/05/11 06:18:37;;;;;;;12.30;4.07;;;15.00;99.90;;;;;;5093026;28;20408;-69
2021/05/11 06:21:03;;;;;;;5.13;3.60;;;15.00;99.90;;;;;;5090980;28;20418;-68
2021/05/11 06:23:28;;;;;;;4.70;3.63;;;14.90;99.90;;;;;;5092770;28;20770;-68
2021/05/11 06:25:54;;;;;;;6.07;3.40;;;15.00;99.90;;;;;;5092767;28;20206;-68
2021/05/11 06:28:19;;;;;;;10.57;3.40;;;15.10;99.90;;;;;;5092856;28;20206;-68
2021/05/11 06:30:45;;;;;;;4.80;3.00;;;14.90;75.90;;;;;;5092581;28;20544;-68
2021/05/11 06:33:10;;;;;;;20.17;3.87;;;14.70;43.20;;;;;;5092162;28;20547;-68
2021/05/11 06:35:36;;;;;;;12.13;4.03;;;14.70;99.90;;;;;;5092457;28;20202;-68
2021/05/11 06:38:02;;;;;;;20.03;4.40;;;14.80;99.90;;;;;;5092439;28;20536;-69
2021/05/11 06:40:29;;;;;;;7.27;3.10;;;15.00;99.90;;;;;;5092470;28;20532;-69
2021/05/11 06:42:57;;;;;;;12.83;4.40;;;15.00;99.90;;;;;;5092392;28;20227;-69
2021/05/11 06:55:37;;;;;;;26.77;5.13;;;15.00;1.00;;;;;;5092000;28;20187;-69
2021/05/11 06:58:03;;;;;;;10.03;3.40;;;15.10;35.40;;;;;;5091980;28;20738;-69
2021/05/11 07:00:29;;;;;;;31.93;5.10;;;15.10;20.40;;;;;;5093642;28;20440;-69
2021/05/11 07:02:55;;;;;;;4.67;2.90;;;15.30;8.70;;;;;;5097087;28;20405;-69
2021/05/11 07:05:20;;;;;;;6.33;2.43;;;15.30;1.00;;;;;;5096414;28;20359;-68
2021/05/11 07:07:59;;;;;;;31.63;4.83;;;15.40;1.00;;;;;;5094789;28;20707;-69
2021/05/11 07:10:30;;;;;;;26.13;4.80;;;15.60;1.00;;;;;;5096487;28;20164;-69
2021/05/11 07:15:33;;;;;;;27.97;6.40;;;15.50;1.00;;;;;;5096195;28;20425;-69
2021/05/11 07:18:09;;;;;;;51.07;8.80;;;15.70;1.00;;;;;;5095731;28;20786;-69
2021/05/11 07:20:35;;;;;;;43.70;8.00;;;16.00;1.00;;;;;;5095755;28;20204;-69
2021/05/11 07:23:01;;;;;;;21.50;8.53;;;16.10;1.00;;;;;;5095785;28;20957;-69
2021/05/11 07:25:30;;;;;;;18.07;7.30;;;15.80;1.00;;;;;;5095323;28;20433;-69
2021/05/11 07:30:36;;;;;;;11.00;7.57;;;15.80;1.00;;;;;;5095929;28;20390;-68
2021/05/11 07:33:07;;;;;;;36.03;11.13;;;15.80;1.00;;;;;;5095842;28;20450;-69
2021/05/11 07:35:32;;;;;;;12.57;9.67;;;16.00;1.00;;;;;;5095139;28;20183;-69
2021/05/11 07:37:58;;;;;;;29.83;10.43;;;16.00;1.00;;;;;;5095130;28;20423;-69
2021/05/11 07:40:24;;;;;;;56.03;12.53;;;16.00;1.00;;;;;;5095187;28;20210;-68
2021/05/11 07:42:50;;;;;;;343.27;32.33;;;16.00;1.00;;;;;;5095378;28;20210;-68
2021/05/11 07:45:29;;;;;;;20.20;8.77;;;16.00;1.00;;;;;;5095020;28;20277;-68
2021/05/11 07:48:12;;;;;;;26.17;10.03;;;15.90;1.00;;;;;;5095140;28;20437;-68
2021/05/11 08:17:51;;;;;;;18.33;10.20;;;16.80;1.00;;;;;;5094495;28;20392;-70
2021/05/11 08:28:13;;;;;;;11.53;10.33;;;16.70;1.00;;;;;;5094101;28;20462;-69
2021/05/11 08:30:39;;;;;;;35.33;14.17;;;16.90;1.00;;;;;;5094058;28;20411;-70
2021/05/11 08:33:05;;;;;;;29.33;12.73;;;16.90;1.00;;;;;;5094376;28;20168;-69
2021/05/11 08:35:30;;;;;;;39.23;13.63;;;16.70;1.00;;;;;;5093691;28;20187;-70
2021/05/11 08:37:56;;;;;;;21.13;11.37;;;16.60;1.00;;;;;;5093884;28;20486;-70
2021/05/11 08:40:22;;;;;;;11.40;10.20;;;16.60;1.00;;;;;;5093631;28;20201;-70
2021/05/11 08:42:48;;;;;;;171.90;22.93;;;16.70;1.00;;;;;;5092549;28;20186;-69
2021/05/11 08:45:17;;;;;;;431.57;44.83;;;16.80;1.00;;;;;;5092305;28;20524;-69
2021/05/11 08:47:49;;;;;;;13.03;10.00;;;16.80;1.00;;;;;;5093696;28;20163;-69
2021/05/11 08:50:22;;;;;;;39.20;12.87;;;16.90;1.00;;;;;;5093946;28;20401;-69
2021/05/11 08:59:56;;;;;;;37.43;12.07;;;16.80;99.90;;;;;;5093845;28;20436;-69
2021/05/11 09:32:38;;;;;;;6.67;5.50;;;17.50;98.70;;;;;;5071392;28;20408;-69
2021/05/11 10:47:00;;;;;;;4.03;3.40;;;17.30;99.90;;;;;;5096216;28;20385;-69
2021/05/11 10:49:32;;;;;;;7.23;4.33;;;17.50;99.90;;;;;;5096010;28;20440;-69
2021/05/11 10:52:14;;;;;;;4.20;3.73;;;17.60;99.90;;;;;;5094414;28;20782;-69
2021/05/11 10:55:01;;;;;;;3.67;2.80;;;18.00;37.30;;;;;;5095807;28;20778;-69
2021/05/11 10:57:29;;;;;;;12.53;3.50;;;18.00;1.00;;;;;;5095703;28;20435;-69
2021/05/11 11:00:16;;;;;;;6.93;4.10;;;18.00;1.00;;;;;;5095722;28;20412;-69
2021/05/11 11:02:47;;;;;;;15.70;3.70;;;17.80;1.00;;;;;;5094527;28;20736;-68
2021/05/11 11:05:35;;;;;;;6.03;4.40;;;17.90;1.00;;;;;;5095670;28;20970;-69
2021/05/11 11:08:01;;;;;;;6.13;2.80;;;18.00;1.00;;;;;;5095740;28;20563;-69
2021/05/11 11:10:29;;;;;;;7.40;2.93;;;17.80;1.00;;;;;;5095835;28;20402;-69
2021/05/11 11:12:55;;;;;;;9.23;2.77;;;17.90;1.00;;;;;;5095570;28;20163;-69
2021/05/11 11:15:21;;;;;;;9.97;2.87;;;17.80;1.00;;;;;;5095710;28;20424;-69
2021/05/11 11:17:55;;;;;;;5.10;2.33;;;18.00;1.00;;;;;;5096023;28;20397;-69
2021/05/11 11:20:31;;;;;;;2.10;1.83;;;18.00;1.00;;;;;;5094134;28;20455;-69
2021/05/11 11:26:11;;;;;;;45.57;5.40;;;17.90;1.00;;;;;;5095555;28;20884;-70
2021/05/11 11:28:37;;;;;;;3.50;2.20;;;17.80;1.00;;;;;;5094802;28;20536;-70
2021/05/11 11:31:24;;;;;;;5.47;2.40;;;17.50;1.00;;;;;;5095169;28;20797;-69
2021/05/11 11:33:49;;;;;;;9.33;2.13;;;17.80;1.00;;;;;;5094551;28;20543;-68
2021/05/11 11:36:32;;;;;;;19.17;3.10;;;17.90;1.00;;;;;;5095098;28;20437;-68
2021/05/11 11:39:00;;;;;;;98.87;10.53;;;18.00;1.00;;;;;;5095107;28;20188;-69
2021/05/11 11:41:27;;;;;;;51.90;6.37;;;18.20;1.00;;;;;;5095122;28;20908;-69
2021/05/11 11:43:53;;;;;;;7.30;2.87;;;18.00;1.00;;;;;;5094764;28;20433;-69
2021/05/11 11:46:29;;;;;;;5.53;2.00;;;17.90;1.00;;;;;;5094377;28;20759;-69
2021/05/11 11:49:02;;;;;;;5.23;1.43;;;17.90;1.00;;;;;;5095035;28;20444;-69
2021/05/11 11:51:31;;;;;;;2.80;1.60;;;17.90;1.00;;;;;;5094635;28;20379;-68
2021/05/11 11:59:25;;;;;;;10.30;2.13;;;18.20;1.00;;;;;;5094914;28;20438;-68
2021/05/11 12:01:58;;;;;;;11.13;2.67;;;17.90;1.00;;;;;;5094621;28;20401;-69
2021/05/11 12:04:24;;;;;;;4.93;2.30;;;18.00;1.00;;;;;;5094754;28;20210;-69
2021/05/11 12:06:51;;;;;;;3.30;2.03;;;18.00;1.00;;;;;;5094650;28;20413;-68
2021/05/11 12:09:21;;;;;;;4.00;2.33;;;18.20;1.00;;;;;;5094530;28;20468;-69
2021/05/11 12:11:47;;;;;;;3.33;2.67;;;18.30;99.90;;;;;;5093210;28;20546;-69
2021/05/11 12:14:15;;;;;;;2.90;2.70;;;18.00;66.70;;;;;;5094923;28;20464;-69
2021/05/11 12:16:42;;;;;;;2.63;2.37;;;17.90;19.20;;;;;;5095146;28;20406;-69
2021/05/11 12:19:18;;;;;;;2.30;2.10;;;17.80;99.90;;;;;;5094729;28;20470;-69
2021/05/11 12:22:04;;;;;;;3.40;2.00;;;17.70;99.90;;;;;;5094259;28;20410;-68
2021/05/11 12:24:35;;;;;;;2.60;2.40;;;18.00;99.90;;;;;;5094492;28;20429;-69
2021/05/11 12:27:22;;;;;;;2.90;2.20;;;18.20;99.90;;;;;;5094232;28;20440;-68
2021/05/11 12:30:00;;;;;;;7.53;3.07;;;18.20;15.70;;;;;;5094307;28;20444;-68
2021/05/11 12:32:26;;;;;;;3.83;2.10;;;18.20;20.00;;;;;;5094060;28;20411;-68
2021/05/11 12:35:16;;;;;;;10.33;3.73;;;18.30;1.00;;;;;;5093970;28;20421;-69
2021/05/11 12:37:48;;;;;;;15.30;4.20;;;18.50;1.00;;;;;;5094047;28;20156;-69
2021/05/11 12:40:29;;;;;;;10.43;4.30;;;18.30;12.50;;;;;;5094191;28;20407;-68
2021/05/11 12:42:57;;;;;;;4.00;2.57;;;18.20;1.00;;;;;;5092315;28;20454;-69
2021/05/11 12:45:24;;;;;;;3.20;2.43;;;18.20;1.00;;;;;;5093520;28;20927;-69
2021/05/11 12:48:01;;;;;;;5.20;2.27;;;18.10;1.00;;;;;;5094018;28;20406;-69
2021/05/11 12:50:35;;;;;;;5.00;2.93;;;18.00;1.00;;;;;;5094011;28;20468;-69
2021/05/11 12:56:15;;;;;;;6.80;5.07;;;17.90;1.00;;;;;;5093989;28;20432;-69
2021/05/11 12:58:54;;;;;;;6.90;3.20;;;17.80;2.40;;;;;;5092582;28;20476;-68
2021/05/11 13:22:55;;;;;;;3.77;3.47;;;17.30;1.00;;;;;;5093561;28;20492;-68
2021/05/11 13:25:34;;;;;;;8.40;4.63;;;17.00;1.00;;;;;;5093149;28;20428;-68
2021/05/11 13:30:38;;;;;;;10.27;9.27;;;16.20;22.90;;;;;;5093050;28;20383;-69
2021/05/11 13:35:32;;;;;;;12.73;10.70;;;15.90;99.90;;;;;;5093247;28;20425;-69
2021/05/11 13:37:58;;;;;;;13.57;11.67;;;15.80;1.00;;;;;;5092913;28;20412;-69
2021/05/11 13:40:24;;;;;;;13.80;11.10;;;15.60;1.00;;;;;;5091598;28;20783;-69
2021/05/11 13:42:51;;;;;;;14.53;12.83;;;15.50;99.90;;;;;;5092699;28;20156;-69
2021/05/11 13:45:17;;;;;;;14.50;11.87;;;15.60;1.00;;;;;;5092349;28;20194;-69
2021/05/11 13:47:55;;;;;;;15.47;11.80;;;15.60;99.90;;;;;;5093141;28;20498;-69
2021/05/11 13:50:22;;;;;;;15.37;13.07;;;15.60;99.90;;;;;;5093009;28;20755;-69
2021/05/11 13:52:47;;;;;;;17.60;13.20;;;15.60;1.00;;;;;;5092893;28;20459;-70
2021/05/11 13:55:21;;;;;;;14.47;12.47;;;15.80;34.60;;;;;;5092519;28;20426;-69
2021/05/11 14:03:15;;;;;;;14.20;12.03;;;15.80;1.00;;;;;;5092454;28;20515;-70
2021/05/11 14:05:40;;;;;;;12.57;11.27;;;15.90;99.90;;;;;;5091098;28;20430;-69
2021/05/11 14:08:06;;;;;;;15.70;11.03;;;15.80;1.00;;;;;;5092533;28;20234;-68
2021/05/11 14:10:31;;;;;;;14.00;12.37;;;15.70;1.00;;;;;;5092933;28;20645;-70
2021/05/11 14:12:57;;;;;;;15.80;12.63;;;15.70;52.50;;;;;;5092721;28;20542;-68
2021/05/11 14:15:23;;;;;;;12.80;11.50;;;15.90;1.00;;;;;;5092423;28;20288;-68
2021/05/11 14:17:49;;;;;;;17.03;14.17;;;15.70;1.00;;;;;;5092678;28;20629;-69
2021/05/11 14:20:14;;;;;;;13.60;12.20;;;15.80;99.90;;;;;;5092998;28;20168;-70
2021/05/11 14:22:40;;;;;;;17.73;13.97;;;16.00;99.90;;;;;;5092832;28;20758;-68
2021/05/11 14:25:06;;;;;;;15.93;12.77;;;16.10;1.00;;;;;;5092340;28;20271;-69
2021/05/11 14:27:32;;;;;;;15.13;12.10;;;16.30;99.90;;;;;;5093288;28;20167;-71
2021/05/11 14:29:57;;;;;;;11.90;10.70;;;16.30;99.90;;;;;;5092481;28;20450;-69
2021/05/11 14:32:23;;;;;;;14.67;12.00;;;16.30;1.00;;;;;;5092171;28;20224;-69
2021/05/11 14:34:48;;;;;;;13.73;12.20;;;16.40;99.90;;;;;;5092545;28;20206;-69
2021/05/11 14:37:14;;;;;;;14.00;12.50;;;16.30;1.00;;;;;;5092587;28;20641;-69
2021/05/11 14:39:40;;;;;;;13.10;11.00;;;16.20;99.90;;;;;;5092507;28;20679;-69
2021/05/11 14:42:06;;;;;;;13.40;11.97;;;16.10;99.90;;;;;;5092590;28;20251;-69
2021/05/11 14:44:31;;;;;;;12.30;11.03;;;16.30;1.00;;;;;;5092385;28;20187;-70
2021/05/11 14:46:57;;;;;;;13.30;12.00;;;16.60;99.90;;;;;;5092201;28;20407;-69
2021/05/11 14:49:24;;;;;;;12.80;11.60;;;16.30;99.90;;;;;;5092695;28;20568;-69
2021/05/11 14:51:50;;;;;;;17.57;11.23;;;16.20;1.00;;;;;;5092676;28;20177;-69
2021/05/11 14:54:15;;;;;;;28.17;14.87;;;16.40;1.00;;;;;;5092519;28;20420;-69
2021/05/11 14:56:41;;;;;;;15.47;12.43;;;16.40;64.10;;;;;;5092216;28;20456;-69
2021/05/11 14:59:08;;;;;;;10.90;9.80;;;16.40;1.00;;;;;;5092317;28;20306;-70
2021/05/11 15:01:33;;;;;;;12.73;9.63;;;16.10;99.90;;;;;;5091861;28;20180;-70
2021/05/11 15:04:00;;;;;;;10.70;8.90;;;15.90;1.00;;;;;;5092342;28;20790;-70
2021/05/11 15:06:26;;;;;;;11.63;9.10;;;15.80;1.00;;;;;;5092231;28;20179;-69
2021/05/11 15:08:52;;;;;;;9.33;8.43;;;15.50;1.00;;;;;;5091946;28;20456;-69
2021/05/11 15:11:17;;;;;;;10.63;9.43;;;15.70;68.40;;;;;;5091966;28;20402;-69
2021/05/11 15:13:44;;;;;;;13.40;11.30;;;15.60;99.90;;;;;;5092152;28;20164;-70
2021/05/11 15:16:12;;;;;;;10.87;9.87;;;15.50;1.00;;;;;;5091616;28;20636;-68
2021/05/11 15:18:38;;;;;;;11.50;10.30;;;15.60;99.90;;;;;;5091760;28;20493;-69
2021/05/11 15:21:03;;;;;;;12.20;10.40;;;15.60;1.00;;;;;;5092381;28;20812;-68
2021/05/11 15:23:29;;;;;;;12.00;10.23;;;15.50;99.90;;;;;;5095849;28;20207;-69
2021/05/11 15:25:56;;;;;;;12.70;11.03;;;15.70;1.00;;;;;;5095979;28;20186;-69
2021/05/11 15:28:21;;;;;;;12.93;11.53;;;15.80;99.90;;;;;;5095501;28;20191;-68
2021/05/11 15:30:47;;;;;;;19.10;13.07;;;15.50;99.90;;;;;;5095386;28;20467;-68
2021/05/11 15:33:12;;;;;;;14.70;13.20;;;15.60;99.90;;;;;;5095205;28;20243;-68
2021/05/11 15:35:38;;;;;;;17.27;14.50;;;15.40;99.90;;;;;;5095241;28;20183;-69
2021/05/11 15:38:06;;;;;;;26.80;14.50;;;15.60;14.80;;;;;;5095581;28;20233;-70
2021/05/11 15:40:37;;;;;;;20.07;13.13;;;15.50;1.00;;;;;;5095702;28;20309;-70
2021/05/11 15:43:04;;;;;;;18.83;13.07;;;15.70;1.00;;;;;;5095683;28;20410;-70
2021/05/11 15:45:31;;;;;;;14.30;12.33;;;15.70;99.90;;;;;;5095190;28;20839;-70
2021/05/11 15:47:56;;;;;;;20.37;14.67;;;15.70;99.90;;;;;;5095095;28;20416;-69
2021/05/11 15:50:25;;;;;;;15.43;13.17;;;15.50;99.90;;;;;;5095353;28;20409;-70
2021/05/11 15:52:53;;;;;;;19.57;11.43;;;15.50;99.90;;;;;;5095099;28;20160;-68
2021/05/11 15:55:18;;;;;;;14.80;11.10;;;15.60;99.90;;;;;;5094701;28;20414;-69
2021/05/11 15:57:44;;;;;;;15.93;12.10;;;15.50;99.90;;;;;;5095279;28;20456;-68
2021/05/11 16:00:11;;;;;;;15.50;11.97;;;15.60;1.00;;;;;;5095377;28;20494;-69
2021/05/11 16:02:37;;;;;;;12.70;11.47;;;15.60;99.90;;;;;;5094952;28;20181;-69
2021/05/11 16:05:06;;;;;;;11.97;10.73;;;15.60;99.90;;;;;;5095010;28;20495;-68
2021/05/11 16:07:31;;;;;;;14.17;11.30;;;15.70;1.00;;;;;;5094772;28;20175;-69
2021/05/11 16:09:57;;;;;;;14.10;11.07;;;15.50;99.90;;;;;;5095054;28;20540;-69
2021/05/11 16:12:23;;;;;;;14.30;10.47;;;15.50;1.00;;;;;;5095766;28;20501;-69
2021/05/11 16:14:50;;;;;;;13.30;10.63;;;15.70;1.00;;;;;;5094534;28;20179;-69
2021/05/11 16:17:15;;;;;;;13.80;11.10;;;15.70;99.90;;;;;;5094955;28;20216;-69
2021/05/11 16:19:41;;;;;;;17.00;11.83;;;15.70;1.00;;;;;;5094307;28;20421;-69
2021/05/11 16:22:06;;;;;;;12.40;10.23;;;15.60;1.00;;;;;;5094696;28;20582;-69
2021/05/11 16:24:32;;;;;;;11.93;9.60;;;15.60;99.90;;;;;;5094561;28;20196;-69
2021/05/11 16:26:57;;;;;;;11.47;10.17;;;15.60;1.00;;;;;;5094619;28;20212;-69
2021/05/11 16:29:23;;;;;;;13.70;10.63;;;15.50;1.00;;;;;;5094790;28;20274;-68
2021/05/11 16:31:49;;;;;;;15.40;10.73;;;15.60;1.00;;;;;;5094188;28;20159;-69
2021/05/11 16:34:14;;;;;;;14.47;11.03;;;15.60;99.90;;;;;;5094982;28;20420;-69
2021/05/11 16:36:40;;;;;;;13.23;10.87;;;15.60;1.00;;;;;;5094409;28;20160;-69
2021/05/11 16:39:06;;;;;;;13.57;10.10;;;15.50;1.00;;;;;;5094643;28;20229;-69
2021/05/11 16:41:31;;;;;;;16.87;10.13;;;15.30;8.60;;;;;;5094443;28;20200;-69
2021/05/11 16:43:58;;;;;;;10.77;9.20;;;15.30;99.90;;;;;;5094365;28;20794;-70
2021/05/11 16:46:24;;;;;;;13.17;10.70;;;15.40;1.00;;;;;;5094264;28;20571;-71
2021/05/11 16:48:49;;;;;;;14.73;10.20;;;15.40;1.00;;;;;;5094413;28;20442;-71
2021/05/11 16:51:15;;;;;;;11.67;9.50;;;15.30;99.90;;;;;;5094095;28;20406;-71
2021/05/11 16:53:40;;;;;;;13.90;10.07;;;15.20;99.90;;;;;;5093955;28;20173;-71
2021/05/11 16:56:06;;;;;;;16.03;13.40;;;15.20;99.90;;;;;;5093785;28;20164;-71
2021/05/11 16:58:32;;;;;;;13.57;9.23;;;15.20;1.00;;;;;;5093815;28;20179;-69
2021/05/11 17:00:57;;;;;;;10.33;9.30;;;15.30;1.00;;;;;;5094311;28;20242;-70
2021/05/11 17:03:23;;;;;;;13.57;9.03;;;15.50;99.90;;;;;;5092438;28;20171;-70
2021/05/11 17:05:49;;;;;;;10.53;8.63;;;15.70;1.00;;;;;;5093653;28;20183;-70